Time;durP1;ratioP1;P1;durP2;ratioP2;P2;SDS_P1;SDS_P2;PMS_P1;PMS_P2;Temp;Humidity;BMP_temperature;BMP_pressure;BME280_temperature;BME280_humidity;BME280_pressure;Samples;Min_cycle;Max_cycle;Signal;HPM_P1;HPM_P2
2022/01/07 00:01:01;;;;;;;41.83;12.20;;;1.20;99.90;;;;;;2224733;64;20138;-33
2022/01/07 00:03:28;;;;;;;40.10;10.97;;;1.20;99.90;;;;;;2224930;64;20088;-33
2022/01/07 00:05:54;;;;;;;39.57;8.47;;;1.20;99.90;;;;;;2224810;64;20084;-33
2022/01/07 00:08:23;;;;;;;36.53;8.83;;;1.20;99.90;;;;;;2224835;64;20091;-30
2022/01/07 00:10:49;;;;;;;36.87;10.40;;;1.20;99.90;;;;;;2224774;64;20095;-33
2022/01/07 00:13:16;;;;;;;44.07;11.93;;;1.20;99.90;;;;;;2224800;64;20508;-32
2022/01/07 00:15:44;;;;;;;32.57;10.17;;;1.20;99.90;;;;;;2224753;64;20096;-32
2022/01/07 00:18:10;;;;;;;48.00;11.23;;;1.20;99.90;;;;;;2224859;64;20084;-32
2022/01/07 00:20:37;;;;;;;40.93;10.83;;;1.20;99.90;;;;;;2224130;64;20099;-36
2022/01/07 00:23:04;;;;;;;33.00;9.97;;;1.20;99.90;;;;;;2220891;64;20092;-32
2022/01/07 00:25:30;;;;;;;41.37;11.00;;;1.20;99.90;;;;;;2223157;64;20108;-38
2022/01/07 00:27:57;;;;;;;39.60;11.47;;;1.20;99.90;;;;;;2220992;64;20096;-33
2022/01/07 00:30:24;;;;;;;47.80;13.30;;;1.20;99.90;;;;;;2209654;64;20093;-33
2022/01/07 00:32:50;;;;;;;55.53;14.30;;;1.20;99.90;;;;;;2220999;64;20107;-31
2022/01/07 00:35:17;;;;;;;48.50;12.53;;;1.10;99.90;;;;;;2220902;64;20115;-33
2022/01/07 00:37:45;;;;;;;46.17;10.37;;;1.10;99.90;;;;;;2220782;64;20544;-43
2022/01/07 00:40:17;;;;;;;39.33;10.90;;;1.00;99.90;;;;;;2220839;64;20156;-32
2022/01/07 00:42:45;;;;;;;44.17;10.80;;;1.00;99.90;;;;;;2220835;64;20096;-32
2022/01/07 00:45:12;;;;;;;40.40;10.93;;;1.00;99.90;;;;;;2220830;64;20096;-31
2022/01/07 00:47:38;;;;;;;31.37;8.13;;;1.00;99.90;;;;;;2220632;64;20096;-39
2022/01/07 00:50:05;;;;;;;59.00;15.07;;;1.00;99.90;;;;;;2216964;64;20103;-31
2022/01/07 00:52:33;;;;;;;47.50;12.47;;;1.00;99.90;;;;;;2220983;64;20088;-31
2022/01/07 00:54:59;;;;;;;41.20;12.33;;;1.00;99.90;;;;;;2220882;64;20553;-31
2022/01/07 00:57:26;;;;;;;45.30;11.27;;;1.10;99.90;;;;;;2220867;64;20626;-31
2022/01/07 00:59:52;;;;;;;44.20;13.07;;;1.10;99.90;;;;;;2220598;64;20647;-44
2022/01/07 01:02:19;;;;;;;39.70;11.23;;;1.10;99.90;;;;;;2217057;64;20170;-31
2022/01/07 01:04:45;;;;;;;37.17;10.87;;;1.10;99.90;;;;;;2220706;64;20096;-32
2022/01/07 01:07:12;;;;;;;41.17;10.60;;;1.20;99.90;;;;;;2220715;64;20108;-33
2022/01/07 01:09:39;;;;;;;43.00;11.67;;;1.20;99.90;;;;;;2220425;64;20103;-35
2022/01/07 01:12:06;;;;;;;56.17;13.13;;;1.20;99.90;;;;;;2220802;64;20176;-34
2022/01/07 01:14:33;;;;;;;37.53;11.53;;;1.20;99.90;;;;;;2220713;64;20119;-36
2022/01/07 01:16:59;;;;;;;37.83;10.23;;;1.20;99.90;;;;;;2216909;64;20115;-36
2022/01/07 01:19:26;;;;;;;36.03;12.17;;;1.20;99.90;;;;;;2220449;64;20462;-40
2022/01/07 01:21:53;;;;;;;43.67;11.87;;;1.30;99.90;;;;;;2220714;64;20087;-38
2022/01/07 01:24:19;;;;;;;24.17;6.90;;;1.30;99.90;;;;;;2220601;64;20548;-36
2022/01/07 01:26:46;;;;;;;36.90;10.70;;;1.30;99.90;;;;;;2224233;64;20579;-36
2022/01/07 01:29:12;;;;;;;36.03;9.87;;;1.30;99.90;;;;;;2224431;64;20457;-42
2022/01/07 01:31:39;;;;;;;39.63;11.73;;;1.20;99.90;;;;;;2224435;64;20100;-37
2022/01/07 01:34:05;;;;;;;41.20;12.23;;;1.20;99.90;;;;;;2224581;64;20084;-44
2022/01/07 01:36:32;;;;;;;34.97;10.63;;;1.20;99.90;;;;;;2224706;64;20080;-41
2022/01/07 01:38:59;;;;;;;38.20;10.60;;;1.20;99.90;;;;;;2224540;64;20251;-36
2022/01/07 01:41:26;;;;;;;39.80;9.90;;;1.20;99.90;;;;;;2224548;64;20092;-38
2022/01/07 01:43:52;;;;;;;36.67;10.90;;;1.10;99.90;;;;;;2224353;64;20107;-36
2022/01/07 01:46:19;;;;;;;38.93;11.83;;;1.20;99.90;;;;;;2224599;64;20571;-38
2022/01/07 01:48:45;;;;;;;36.70;10.47;;;1.20;99.90;;;;;;2223619;64;20100;-37
2022/01/07 01:51:13;;;;;;;35.87;10.97;;;1.20;99.90;;;;;;2224659;64;20106;-41
2022/01/07 01:53:40;;;;;;;27.87;9.03;;;1.20;99.90;;;;;;2224417;64;20169;-41
2022/01/07 01:56:06;;;;;;;34.30;9.60;;;1.20;99.90;;;;;;2224576;64;20151;-48
2022/01/07 01:58:33;;;;;;;42.50;9.83;;;1.20;99.90;;;;;;2224543;64;20574;-40
2022/01/07 02:01:00;;;;;;;43.20;11.33;;;1.20;99.90;;;;;;2224464;64;20436;-43
2022/01/07 02:03:26;;;;;;;40.23;10.57;;;1.20;99.90;;;;;;2224249;64;20096;-43
2022/01/07 02:05:54;;;;;;;41.47;11.00;;;1.20;99.90;;;;;;2224428;64;20107;-37
2022/01/07 02:08:20;;;;;;;33.20;8.00;;;1.20;99.90;;;;;;2223590;64;20177;-38
2022/01/07 02:10:47;;;;;;;48.70;13.93;;;1.20;99.90;;;;;;2224596;64;20586;-41
2022/01/07 02:13:16;;;;;;;39.57;12.10;;;1.20;99.90;;;;;;2224383;64;20440;-35
2022/01/07 02:15:42;;;;;;;50.40;14.27;;;1.20;99.90;;;;;;2224413;64;20080;-34
2022/01/07 02:18:09;;;;;;;25.40;9.37;;;1.10;99.90;;;;;;2224338;64;20131;-42
2022/01/07 02:20:35;;;;;;;45.17;13.50;;;1.20;99.90;;;;;;2224750;64;20471;-40
2022/01/07 02:23:01;;;;;;;37.17;11.60;;;1.20;99.90;;;;;;2225146;64;20168;-37
2022/01/07 02:25:28;;;;;;;45.33;12.23;;;1.10;99.90;;;;;;2219817;64;20089;-44
2022/01/07 02:28:00;;;;;;;33.40;8.07;;;1.10;99.90;;;;;;2214268;64;20111;-45
2022/01/07 02:30:28;;;;;;;31.07;9.37;;;1.10;99.90;;;;;;2221176;64;20143;-46
2022/01/07 02:32:55;;;;;;;42.63;12.97;;;1.10;99.90;;;;;;2221334;64;20111;-45
2022/01/07 02:35:22;;;;;;;49.17;11.53;;;1.20;99.90;;;;;;2221091;64;20112;-47
2022/01/07 02:37:49;;;;;;;47.17;11.70;;;1.10;99.90;;;;;;2221318;64;20531;-46
2022/01/07 02:40:15;;;;;;;41.23;12.20;;;1.10;99.90;;;;;;2221214;64;20085;-48
2022/01/07 02:42:42;;;;;;;47.30;12.97;;;1.10;99.90;;;;;;2221324;64;20085;-46
2022/01/07 02:45:09;;;;;;;45.17;13.77;;;1.00;99.90;;;;;;2220998;64;20127;-53
2022/01/07 02:47:49;;;;;;;40.77;10.87;;;1.00;99.90;;;;;;2221198;64;20584;-46
2022/01/07 02:50:19;;;;;;;36.47;10.60;;;1.00;99.90;;;;;;2221100;64;20112;-46
2022/01/07 02:52:46;;;;;;;50.87;13.63;;;1.00;99.90;;;;;;2221042;64;20145;-46
2022/01/07 02:55:12;;;;;;;42.80;11.50;;;0.90;99.90;;;;;;2221090;64;20081;-47
2022/01/07 02:57:39;;;;;;;52.17;12.77;;;0.90;99.90;;;;;;2221191;64;20176;-46
2022/01/07 03:00:07;;;;;;;47.87;12.60;;;0.90;99.90;;;;;;2217296;64;20115;-47
2022/01/07 03:02:33;;;;;;;42.43;11.60;;;0.90;99.90;;;;;;2221228;64;20095;-46
2022/01/07 03:05:00;;;;;;;55.53;15.03;;;0.90;99.90;;;;;;2221075;64;20093;-47
2022/01/07 03:07:26;;;;;;;54.80;15.10;;;0.90;99.90;;;;;;2217318;64;20089;-48
2022/01/07 03:09:53;;;;;;;56.07;13.53;;;0.90;99.90;;;;;;2220948;64;20636;-46
2022/01/07 03:12:19;;;;;;;54.27;15.20;;;0.90;99.90;;;;;;2221200;64;20084;-45
2022/01/07 03:14:48;;;;;;;53.17;13.73;;;0.90;99.90;;;;;;2221135;64;20151;-46
2022/01/07 03:17:14;;;;;;;50.33;12.30;;;0.90;99.90;;;;;;2221126;64;20081;-45
2022/01/07 03:19:41;;;;;;;39.10;10.57;;;0.90;99.90;;;;;;2217056;64;20084;-56
2022/01/07 03:22:07;;;;;;;35.63;9.70;;;0.90;99.90;;;;;;2221237;64;20093;-45
2022/01/07 03:24:34;;;;;;;41.03;10.93;;;0.90;99.90;;;;;;2220936;64;20095;-42
2022/01/07 03:27:00;;;;;;;47.63;12.17;;;0.90;99.90;;;;;;2225015;64;20098;-41
2022/01/07 03:29:27;;;;;;;34.43;9.50;;;0.90;99.90;;;;;;2224799;64;20084;-40
2022/01/07 03:31:55;;;;;;;43.27;12.00;;;0.90;99.90;;;;;;2224799;64;20091;-42
2022/01/07 03:34:21;;;;;;;46.33;10.30;;;0.90;99.90;;;;;;2224931;64;20533;-41
2022/01/07 03:36:48;;;;;;;43.37;11.43;;;0.90;99.90;;;;;;2225037;64;20092;-40
2022/01/07 03:39:14;;;;;;;36.00;9.20;;;0.90;99.90;;;;;;2224709;64;20100;-39
2022/01/07 03:41:41;;;;;;;39.67;10.70;;;0.90;99.90;;;;;;2225128;64;20586;-39
2022/01/07 03:44:07;;;;;;;42.27;10.30;;;0.80;99.90;;;;;;2224859;64;20111;-43
2022/01/07 03:46:34;;;;;;;26.70;7.60;;;0.90;99.90;;;;;;2224819;64;20088;-37
2022/01/07 03:49:00;;;;;;;40.67;10.80;;;0.90;99.90;;;;;;2224598;64;20096;-39
2022/01/07 03:51:26;;;;;;;30.57;8.70;;;0.90;99.90;;;;;;2225003;64;20397;-36
2022/01/07 03:53:53;;;;;;;27.40;7.67;;;0.90;99.90;;;;;;2224768;64;20080;-38
2022/01/07 03:56:20;;;;;;;28.33;7.07;;;0.90;99.90;;;;;;2224954;64;20159;-35
2022/01/07 03:58:47;;;;;;;38.27;10.07;;;0.90;99.90;;;;;;2224774;64;20080;-37
2022/01/07 04:01:14;;;;;;;39.73;11.30;;;0.90;99.90;;;;;;2224834;64;20080;-53
2022/01/07 04:03:40;;;;;;;38.00;8.67;;;0.80;99.90;;;;;;2224784;64;20092;-42
2022/01/07 04:06:06;;;;;;;37.27;10.13;;;0.80;99.90;;;;;;2224882;64;20173;-36
2022/01/07 04:08:33;;;;;;;24.20;6.60;;;0.80;99.90;;;;;;2224777;64;20192;-37
2022/01/07 04:10:59;;;;;;;25.17;6.07;;;0.80;99.90;;;;;;2224897;64;20110;-38
2022/01/07 04:13:26;;;;;;;32.80;9.63;;;0.80;99.90;;;;;;2220865;64;20107;-44
2022/01/07 04:15:52;;;;;;;28.70;7.93;;;0.80;99.90;;;;;;2224854;64;20526;-35
2022/01/07 04:18:19;;;;;;;36.83;8.77;;;0.80;99.90;;;;;;2224677;64;20444;-46
2022/01/07 04:20:45;;;;;;;39.50;8.77;;;0.80;99.90;;;;;;2224934;64;20568;-40
2022/01/07 04:23:12;;;;;;;38.90;9.73;;;0.80;99.90;;;;;;2224801;64;20205;-43
2022/01/07 04:25:38;;;;;;;27.93;7.30;;;0.80;99.90;;;;;;2222928;64;20158;-43
2022/01/07 04:28:06;;;;;;;36.93;10.67;;;0.80;99.90;;;;;;2216967;64;20391;-37
2022/01/07 04:30:35;;;;;;;30.37;8.37;;;0.90;99.90;;;;;;2220846;64;20162;-40
2022/01/07 04:33:09;;;;;;;31.87;8.93;;;0.90;99.90;;;;;;2220707;64;20186;-37
2022/01/07 04:35:40;;;;;;;32.70;8.33;;;0.90;99.90;;;;;;2220903;64;20092;-40
2022/01/07 04:38:07;;;;;;;32.63;10.27;;;0.90;99.90;;;;;;2220748;64;20089;-43
2022/01/07 04:40:33;;;;;;;36.77;9.03;;;0.80;99.90;;;;;;2221006;64;20092;-41
2022/01/07 04:43:01;;;;;;;34.63;9.30;;;0.90;99.90;;;;;;2220804;64;20460;-39
2022/01/07 04:45:27;;;;;;;23.23;6.27;;;0.80;99.90;;;;;;2220709;64;20100;-53
2022/01/07 04:47:57;;;;;;;26.50;7.77;;;0.80;99.90;;;;;;2220653;64;20181;-43
2022/01/07 04:50:23;;;;;;;30.97;8.03;;;0.80;99.90;;;;;;2220687;64;20180;-45
2022/01/07 04:52:50;;;;;;;27.77;7.13;;;0.80;99.90;;;;;;2220746;64;20469;-44
2022/01/07 04:55:21;;;;;;;26.40;8.20;;;0.80;99.90;;;;;;2220630;64;20100;-55
2022/01/07 04:57:47;;;;;;;32.27;6.83;;;0.80;99.90;;;;;;2220801;64;20111;-45
2022/01/07 05:00:15;;;;;;;26.40;8.00;;;0.70;99.90;;;;;;2220965;64;20092;-43
2022/01/07 05:02:43;;;;;;;27.90;6.97;;;0.70;99.90;;;;;;2220613;64;20539;-41
2022/01/07 05:05:10;;;;;;;28.77;6.80;;;0.80;99.90;;;;;;2220865;64;20096;-43
2022/01/07 05:07:37;;;;;;;27.80;7.90;;;0.80;99.90;;;;;;2220666;64;20728;-42
2022/01/07 05:10:05;;;;;;;24.97;7.20;;;0.70;99.90;;;;;;2220818;64;20077;-43
2022/01/07 05:12:32;;;;;;;31.57;8.00;;;0.70;99.90;;;;;;2220559;64;20103;-40
2022/01/07 05:14:58;;;;;;;32.87;8.27;;;0.70;99.90;;;;;;2220777;64;20096;-40
2022/01/07 05:17:25;;;;;;;27.33;6.93;;;0.70;99.90;;;;;;2220488;64;20085;-43
2022/01/07 05:19:51;;;;;;;27.03;7.23;;;0.70;99.90;;;;;;2220909;64;20084;-37
2022/01/07 05:22:18;;;;;;;28.60;8.07;;;0.70;99.90;;;;;;2220705;64;20621;-53
2022/01/07 05:24:52;;;;;;;24.10;6.90;;;0.70;99.90;;;;;;2221108;64;20099;-41
2022/01/07 05:27:18;;;;;;;25.40;7.13;;;0.80;99.90;;;;;;2224625;64;20114;-55
2022/01/07 05:29:44;;;;;;;26.83;7.47;;;0.80;99.90;;;;;;2224469;64;20145;-37
2022/01/07 05:32:11;;;;;;;22.20;7.37;;;0.80;99.90;;;;;;2224430;64;20134;-39
2022/01/07 05:34:37;;;;;;;20.37;5.33;;;0.90;99.90;;;;;;2224611;64;20080;-42
2022/01/07 05:37:04;;;;;;;22.63;6.60;;;0.90;99.90;;;;;;2216467;64;20088;-43
2022/01/07 05:39:30;;;;;;;18.73;4.77;;;0.90;99.90;;;;;;2220593;64;20084;-41
2022/01/07 05:41:59;;;;;;;23.07;6.97;;;0.90;99.90;;;;;;2224521;64;20076;-44
2022/01/07 05:44:25;;;;;;;17.67;5.80;;;0.90;99.90;;;;;;2220688;64;20084;-50
2022/01/07 05:46:52;;;;;;;17.67;5.40;;;0.90;99.90;;;;;;2224267;64;20156;-45
2022/01/07 05:49:18;;;;;;;21.80;6.87;;;1.00;99.90;;;;;;2224478;64;20100;-40
2022/01/07 05:51:48;;;;;;;14.07;4.83;;;1.00;99.90;;;;;;2224526;64;20103;-38
2022/01/07 05:54:14;;;;;;;13.40;4.63;;;1.00;99.90;;;;;;2224678;64;20685;-37
2022/01/07 05:56:41;;;;;;;16.13;5.00;;;1.00;99.90;;;;;;2224345;64;20119;-47
2022/01/07 05:59:07;;;;;;;15.97;5.30;;;1.00;99.90;;;;;;2224574;64;20111;-38
2022/01/07 06:01:34;;;;;;;14.97;4.87;;;1.00;99.90;;;;;;2224367;64;20169;-36
2022/01/07 06:04:00;;;;;;;16.03;5.47;;;1.00;99.90;;;;;;2224485;64;20185;-36
2022/01/07 06:06:27;;;;;;;15.00;5.13;;;1.00;99.90;;;;;;2224266;64;20114;-43
2022/01/07 06:08:53;;;;;;;20.50;4.63;;;1.00;99.90;;;;;;2224247;64;20117;-39
2022/01/07 06:11:20;;;;;;;17.17;5.40;;;1.00;99.90;;;;;;2224506;64;20108;-36
2022/01/07 06:13:46;;;;;;;18.37;4.00;;;1.00;99.90;;;;;;2224492;64;20092;-38
2022/01/07 06:16:13;;;;;;;15.37;5.20;;;1.00;99.90;;;;;;2224336;64;20161;-39
2022/01/07 06:18:50;;;;;;;15.17;4.83;;;1.10;99.90;;;;;;2224387;64;20096;-41
2022/01/07 06:21:17;;;;;;;13.80;4.63;;;1.10;99.90;;;;;;2224441;64;20705;-37
2022/01/07 06:23:44;;;;;;;18.13;6.20;;;1.10;99.90;;;;;;2220557;64;20483;-36
2022/01/07 06:26:10;;;;;;;15.90;5.43;;;1.10;99.90;;;;;;2221890;64;20089;-40
2022/01/07 06:28:37;;;;;;;19.77;5.53;;;1.10;99.90;;;;;;2220482;64;20103;-41
2022/01/07 06:31:03;;;;;;;19.77;6.70;;;1.10;99.90;;;;;;2220261;64;20073;-41
2022/01/07 06:33:32;;;;;;;21.80;7.43;;;1.10;99.90;;;;;;2220557;64;20108;-42
2022/01/07 06:35:59;;;;;;;18.10;4.43;;;1.10;99.90;;;;;;2220481;64;20097;-44
2022/01/07 06:38:28;;;;;;;16.57;4.87;;;1.10;99.90;;;;;;2220542;64;20093;-40
2022/01/07 06:40:55;;;;;;;14.93;4.47;;;1.10;99.90;;;;;;2220368;64;20096;-40
2022/01/07 06:43:21;;;;;;;17.50;5.87;;;1.20;99.90;;;;;;2220632;64;20543;-43
2022/01/07 06:45:48;;;;;;;18.37;6.23;;;1.20;99.90;;;;;;2220524;64;20306;-41
2022/01/07 06:48:14;;;;;;;20.17;5.67;;;1.20;99.90;;;;;;2208996;64;20131;-48
2022/01/07 06:50:41;;;;;;;20.60;5.27;;;1.20;99.90;;;;;;2220416;64;20092;-44
2022/01/07 06:53:08;;;;;;;14.70;4.60;;;1.20;99.90;;;;;;2220443;64;20072;-44
2022/01/07 06:55:35;;;;;;;21.70;5.30;;;1.10;99.90;;;;;;2220299;64;20069;-47
2022/01/07 06:58:01;;;;;;;19.80;5.30;;;1.10;99.90;;;;;;2220593;64;20460;-43
2022/01/07 07:00:28;;;;;;;19.07;5.03;;;1.10;99.90;;;;;;2220347;64;20429;-46
2022/01/07 07:02:54;;;;;;;18.63;5.97;;;1.10;99.90;;;;;;2220512;64;20103;-48
2022/01/07 07:05:21;;;;;;;16.93;4.97;;;1.10;99.90;;;;;;2220481;64;20111;-47
2022/01/07 07:07:47;;;;;;;19.43;5.97;;;1.10;99.90;;;;;;2220660;64;20117;-48
2022/01/07 07:10:14;;;;;;;12.07;4.33;;;1.20;99.90;;;;;;2220962;64;20076;-48
2022/01/07 07:12:40;;;;;;;18.30;5.23;;;1.20;99.90;;;;;;2221013;64;20104;-47
2022/01/07 07:15:07;;;;;;;14.77;4.30;;;1.20;99.90;;;;;;2220964;64;20156;-48
2022/01/07 07:17:33;;;;;;;11.23;5.67;;;1.20;99.90;;;;;;2220873;64;20093;-47
2022/01/07 07:20:00;;;;;;;14.27;5.20;;;1.20;99.90;;;;;;2220901;64;20096;-40
2022/01/07 07:22:27;;;;;;;16.10;4.87;;;1.20;99.90;;;;;;2221120;64;20084;-40
2022/01/07 07:24:53;;;;;;;9.07;3.70;;;1.20;99.90;;;;;;2221561;64;20080;-40
2022/01/07 07:27:20;;;;;;;10.17;4.73;;;1.30;99.90;;;;;;2224972;64;20102;-40
2022/01/07 07:29:46;;;;;;;7.90;3.20;;;1.20;99.90;;;;;;2220809;64;20115;-42
2022/01/07 07:32:27;;;;;;;12.70;4.63;;;1.30;99.90;;;;;;2217999;64;20559;-40
2022/01/07 07:35:00;;;;;;;12.40;4.90;;;1.30;99.90;;;;;;2224901;64;20151;-41
2022/01/07 07:37:27;;;;;;;12.90;4.03;;;1.30;99.90;;;;;;2224820;64;20169;-40
2022/01/07 07:39:53;;;;;;;10.40;5.07;;;1.30;99.90;;;;;;2224822;64;20103;-37
2022/01/07 07:42:20;;;;;;;12.17;5.10;;;1.30;99.90;;;;;;2224786;64;20091;-38
2022/01/07 07:44:47;;;;;;;9.73;4.33;;;1.40;99.90;;;;;;2224893;64;20092;-38
2022/01/07 07:47:13;;;;;;;10.93;4.87;;;1.40;99.90;;;;;;2220579;64;20084;-39
2022/01/07 07:49:40;;;;;;;9.33;4.13;;;1.30;99.90;;;;;;2224674;64;20112;-39
2022/01/07 07:52:06;;;;;;;8.83;4.47;;;1.40;99.90;;;;;;2224755;64;20091;-39
2022/01/07 07:54:33;;;;;;;10.47;4.57;;;1.30;99.90;;;;;;2224837;64;20081;-44
2022/01/07 07:56:59;;;;;;;8.10;4.03;;;1.30;99.90;;;;;;2224698;64;20100;-41
2022/01/07 07:59:26;;;;;;;10.00;4.27;;;1.30;99.90;;;;;;2224892;64;20104;-38
2022/01/07 08:01:53;;;;;;;9.67;4.40;;;1.30;99.90;;;;;;2224817;64;20115;-37
2022/01/07 08:04:21;;;;;;;8.63;4.27;;;1.20;99.90;;;;;;2224828;64;20245;-36
2022/01/07 08:06:47;;;;;;;10.33;4.57;;;1.20;99.90;;;;;;2224567;64;20108;-36
2022/01/07 08:09:14;;;;;;;12.20;4.53;;;1.20;99.90;;;;;;2224601;64;20100;-37
2022/01/07 08:11:57;;;;;;;11.80;4.67;;;1.20;99.90;;;;;;2224648;64;20096;-37
2022/01/07 08:17:08;;;;;;;11.60;5.25;;;1.20;99.90;;;;;;2224653;64;20110;-36
2022/01/07 08:19:35;;;;;;;10.67;4.07;;;1.20;99.90;;;;;;2220679;64;20155;-35
2022/01/07 08:22:02;;;;;;;13.07;5.47;;;1.20;99.90;;;;;;2224724;64;20076;-34
2022/01/07 08:24:31;;;;;;;10.50;5.30;;;1.20;99.90;;;;;;2224661;64;20111;-36
2022/01/07 08:26:57;;;;;;;12.83;4.27;;;1.20;99.90;;;;;;2217198;64;20588;-33
2022/01/07 08:29:29;;;;;;;12.33;5.83;;;1.20;99.90;;;;;;2220675;64;20100;-33
2022/01/07 08:34:54;;;;;;;8.75;3.60;;;1.20;99.90;;;;;;2208923;64;20089;-35
2022/01/07 08:37:25;;;;;;;9.67;4.13;;;1.20;99.90;;;;;;2220759;64;20537;-37
2022/01/07 08:39:53;;;;;;;13.80;4.67;;;1.20;99.90;;;;;;2220707;64;20583;-33
2022/01/07 08:42:22;;;;;;;11.90;4.50;;;1.20;99.90;;;;;;2220834;64;20085;-34
2022/01/07 08:44:48;;;;;;;10.10;4.10;;;1.30;99.90;;;;;;2220695;64;20076;-34
2022/01/07 08:47:15;;;;;;;9.67;4.37;;;1.30;99.90;;;;;;2216897;64;20092;-32
2022/01/07 08:49:41;;;;;;;8.70;4.77;;;1.20;99.90;;;;;;2220619;64;20089;-34
2022/01/07 08:52:08;;;;;;;9.83;3.60;;;1.20;99.90;;;;;;2220867;64;20103;-34
2022/01/07 08:54:34;;;;;;;7.80;4.10;;;1.20;99.90;;;;;;2220708;64;20456;-33
2022/01/07 08:57:01;;;;;;;12.67;4.37;;;1.20;99.90;;;;;;2220624;64;20092;-37
2022/01/07 08:59:27;;;;;;;11.07;4.83;;;1.20;99.90;;;;;;2220740;64;20441;-34
2022/01/07 09:01:54;;;;;;;7.10;4.53;;;1.20;99.90;;;;;;2220740;64;20104;-34
2022/01/07 09:04:20;;;;;;;11.00;4.23;;;1.20;99.90;;;;;;2220626;64;20089;-32
2022/01/07 09:06:47;;;;;;;8.97;3.77;;;1.20;99.90;;;;;;2220800;64;20103;-33
2022/01/07 09:09:13;;;;;;;9.70;4.07;;;1.10;99.90;;;;;;2220338;64;20178;-33
2022/01/07 09:11:40;;;;;;;14.03;3.80;;;1.10;99.90;;;;;;2220664;64;20085;-34
2022/01/07 09:14:06;;;;;;;8.40;4.77;;;1.10;99.90;;;;;;2220582;64;20085;-33
2022/01/07 09:16:33;;;;;;;11.17;4.27;;;1.10;99.90;;;;;;2220636;64;20085;-33
2022/01/07 09:19:00;;;;;;;8.37;4.67;;;1.00;99.90;;;;;;2220595;64;20093;-39
2022/01/07 09:21:26;;;;;;;9.77;4.07;;;1.00;99.90;;;;;;2220800;64;20108;-38
2022/01/07 09:23:53;;;;;;;8.63;4.43;;;1.00;99.90;;;;;;2220555;64;20173;-39
2022/01/07 09:26:20;;;;;;;13.83;4.83;;;1.00;99.90;;;;;;2223472;64;20110;-31
2022/01/07 09:28:49;;;;;;;11.67;4.93;;;1.00;99.90;;;;;;2224360;64;20556;-32
2022/01/07 09:31:17;;;;;;;11.67;4.80;;;1.00;99.90;;;;;;2224306;64;20134;-30
2022/01/07 09:33:43;;;;;;;9.33;4.00;;;1.00;99.90;;;;;;2224401;64;20115;-30
2022/01/07 09:36:10;;;;;;;11.00;6.23;;;1.00;99.90;;;;;;2224574;64;20543;-31
2022/01/07 09:38:36;;;;;;;13.90;6.93;;;1.00;99.90;;;;;;2224282;64;20111;-30
2022/01/07 09:41:05;;;;;;;13.70;6.37;;;1.00;99.90;;;;;;2224495;64;20114;-39
2022/01/07 09:43:31;;;;;;;14.93;6.73;;;0.90;99.90;;;;;;2224506;64;20092;-32
2022/01/07 09:45:58;;;;;;;17.33;6.67;;;0.90;99.90;;;;;;2224680;64;20116;-31
2022/01/07 09:48:24;;;;;;;14.80;6.77;;;0.90;99.90;;;;;;2217054;64;20088;-30
2022/01/07 09:50:52;;;;;;;12.60;5.70;;;0.90;99.90;;;;;;2219413;64;20145;-31
2022/01/07 09:53:19;;;;;;;14.23;5.77;;;1.00;99.90;;;;;;2224526;64;20099;-31
2022/01/07 09:55:46;;;;;;;15.37;6.50;;;0.90;99.90;;;;;;2224431;64;20080;-34
2022/01/07 09:58:13;;;;;;;13.63;5.73;;;0.90;99.90;;;;;;2224509;64;20172;-30
2022/01/07 10:00:45;;;;;;;13.53;6.00;;;0.80;99.90;;;;;;2224346;64;20115;-30
2022/01/07 10:03:16;;;;;;;16.33;7.43;;;0.90;99.90;;;;;;2220603;64;20448;-31
2022/01/07 10:05:45;;;;;;;16.33;7.63;;;0.90;99.90;;;;;;2224512;64;20088;-29
2022/01/07 10:08:25;;;;;;;16.03;6.77;;;0.90;99.90;;;;;;2224062;64;20479;-29
2022/01/07 10:11:19;;;;;;;19.60;6.93;;;0.80;99.90;;;;;;2224086;64;20099;-31
2022/01/07 10:13:47;;;;;;;15.63;6.77;;;0.90;99.90;;;;;;2224210;64;20092;-31
2022/01/07 10:16:15;;;;;;;16.63;6.73;;;0.90;99.90;;;;;;2224218;64;20119;-29
2022/01/07 10:18:43;;;;;;;11.77;5.17;;;0.90;99.90;;;;;;2224126;64;20100;-31
2022/01/07 10:21:10;;;;;;;15.33;6.33;;;0.90;99.90;;;;;;2224486;64;20096;-29
2022/01/07 10:23:36;;;;;;;13.00;6.43;;;0.80;99.90;;;;;;2224255;64;20167;-30
2022/01/07 10:26:03;;;;;;;11.33;5.53;;;0.80;99.90;;;;;;2222200;64;20100;-30
2022/01/07 10:28:31;;;;;;;13.20;5.70;;;0.90;99.90;;;;;;2216409;64;20108;-33
2022/01/07 10:31:02;;;;;;;10.90;5.37;;;0.90;99.90;;;;;;2220448;64;20089;-33
2022/01/07 10:33:30;;;;;;;16.27;5.00;;;1.00;99.90;;;;;;2220414;64;20080;-32
2022/01/07 10:35:58;;;;;;;12.47;4.47;;;0.90;99.90;;;;;;2220386;64;20085;-33
2022/01/07 10:38:27;;;;;;;8.30;3.97;;;0.90;99.90;;;;;;2220236;64;20587;-33
2022/01/07 10:40:56;;;;;;;11.23;3.97;;;0.90;99.90;;;;;;2209298;64;20170;-36
2022/01/07 10:43:32;;;;;;;9.70;4.40;;;0.90;99.90;;;;;;2221029;64;20108;-31
2022/01/07 10:46:01;;;;;;;10.63;4.60;;;0.90;99.90;;;;;;2221118;64;20107;-33
2022/01/07 10:48:38;;;;;;;7.90;3.53;;;0.90;99.90;;;;;;2209686;64;20089;-31
2022/01/07 10:51:10;;;;;;;10.40;4.10;;;0.90;99.90;;;;;;2221191;64;20579;-32
2022/01/07 10:53:38;;;;;;;7.10;3.00;;;0.90;99.90;;;;;;2220936;64;20120;-51
2022/01/07 10:56:12;;;;;;;2.87;1.17;;;0.90;99.90;;;;;;2217195;64;20084;-36
2022/01/07 10:58:49;;;;;;;7.90;1.25;;;0.80;99.90;;;;;;2220854;64;20592;-32
2022/01/07 11:01:21;;;;;;;2.70;0.90;;;0.80;99.90;;;;;;2221035;64;20103;-32
2022/01/07 11:03:52;;;;;;;2.93;1.03;;;0.80;99.90;;;;;;2220894;64;20084;-30
2022/01/07 11:06:19;;;;;;;5.47;1.07;;;0.80;99.90;;;;;;2221041;64;20089;-31
2022/01/07 11:08:47;;;;;;;3.43;1.10;;;0.80;99.90;;;;;;2220568;64;20088;-31
2022/01/07 11:11:14;;;;;;;8.43;2.73;;;0.70;99.90;;;;;;2217142;64;20517;-32
2022/01/07 11:13:41;;;;;;;5.53;2.83;;;0.80;99.90;;;;;;2220963;64;20080;-31
2022/01/07 11:16:08;;;;;;;10.53;2.73;;;0.80;99.90;;;;;;2220941;64;20493;-36
2022/01/07 11:18:38;;;;;;;12.03;3.20;;;0.80;99.90;;;;;;2217174;64;20088;-32
2022/01/07 11:21:05;;;;;;;6.07;2.43;;;0.80;99.90;;;;;;2217133;64;20096;-36
2022/01/07 11:23:32;;;;;;;6.57;2.77;;;0.80;99.90;;;;;;2217057;64;20089;-33
2022/01/07 11:26:03;;;;;;;7.47;3.10;;;0.90;99.90;;;;;;2223166;64;20196;-31
2022/01/07 11:28:30;;;;;;;9.27;2.80;;;0.90;99.90;;;;;;2224547;64;20110;-29
2022/01/07 11:31:13;;;;;;;11.53;3.40;;;1.00;99.90;;;;;;2224899;64;20092;-30
2022/01/07 11:33:40;;;;;;;5.13;2.63;;;1.00;99.90;;;;;;2224766;64;20108;-31
2022/01/07 11:36:11;;;;;;;6.37;1.70;;;1.00;99.90;;;;;;2224890;64;20100;-31
2022/01/07 11:38:43;;;;;;;5.13;1.80;;;1.00;99.90;;;;;;2224793;64;20115;-31
2022/01/07 11:41:11;;;;;;;6.77;1.87;;;1.00;99.90;;;;;;2224832;64;20092;-50
2022/01/07 11:43:43;;;;;;;5.17;1.50;;;1.10;99.90;;;;;;2224678;64;20110;-35
2022/01/07 11:46:24;;;;;;;10.27;2.30;;;1.00;99.90;;;;;;2224878;64;20080;-56
2022/01/07 11:48:51;;;;;;;3.80;2.03;;;0.90;99.90;;;;;;2214962;64;20096;-31
2022/01/07 11:51:17;;;;;;;2.70;1.17;;;0.80;99.90;;;;;;2212139;64;20089;-30
2022/01/07 11:53:44;;;;;;;5.87;1.77;;;0.90;99.90;;;;;;2215064;64;20092;-32
2022/01/07 11:56:12;;;;;;;2.30;1.13;;;0.80;99.90;;;;;;2215353;64;20162;-41
2022/01/07 11:58:51;;;;;;;2.90;1.60;;;0.70;99.90;;;;;;2215331;64;20264;-32
2022/01/07 12:01:35;;;;;;;3.17;1.30;;;0.70;99.90;;;;;;2215454;64;20115;-35
2022/01/07 12:04:27;;;;;;;4.87;1.00;;;0.60;99.90;;;;;;2215129;64;20112;-33
2022/01/07 12:06:59;;;;;;;5.30;1.20;;;0.50;99.90;;;;;;2215271;64;20104;-34
2022/01/07 12:09:30;;;;;;;3.73;0.90;;;0.50;99.90;;;;;;2215061;64;20097;-37
2022/01/07 12:12:03;;;;;;;3.37;1.50;;;0.50;99.90;;;;;;2215405;64;20085;-33
2022/01/07 12:14:48;;;;;;;5.50;1.13;;;0.60;99.90;;;;;;2211780;64;20509;-34
2022/01/07 12:17:17;;;;;;;3.25;1.17;;;0.60;99.90;;;;;;2215254;64;20100;-34
2022/01/07 12:19:49;;;;;;;3.47;1.13;;;0.60;99.90;;;;;;2215806;64;20093;-33
2022/01/07 12:22:16;;;;;;;2.63;1.10;;;0.70;99.90;;;;;;2216752;64;20156;-34
2022/01/07 12:24:44;;;;;;;2.13;0.90;;;0.70;99.90;;;;;;2216610;64;20093;-35
2022/01/07 12:27:20;;;;;;;5.83;1.20;;;0.70;99.90;;;;;;2213100;64;20081;-38
2022/01/07 12:29:51;;;;;;;3.60;1.43;;;0.70;99.90;;;;;;2212697;64;20108;-34
2022/01/07 12:32:18;;;;;;;3.37;0.77;;;0.70;99.90;;;;;;2212990;64;20466;-34
2022/01/07 12:34:47;;;;;;;4.70;1.10;;;0.70;99.90;;;;;;2212887;64;20082;-36
2022/01/07 12:37:15;;;;;;;2.57;1.17;;;0.60;99.90;;;;;;2212499;64;20091;-36
2022/01/07 12:39:46;;;;;;;2.00;1.17;;;0.60;99.90;;;;;;2212976;64;20101;-37
2022/01/07 12:42:13;;;;;;;2.50;1.07;;;0.50;99.90;;;;;;2212944;64;20124;-40
2022/01/07 12:44:49;;;;;;;1.50;1.00;;;0.50;99.90;;;;;;2212932;64;20380;-35
2022/01/07 12:47:16;;;;;;;2.70;0.83;;;0.40;99.90;;;;;;2215828;64;20226;-36
2022/01/07 12:49:44;;;;;;;2.43;0.90;;;0.40;99.90;;;;;;2220502;64;20587;-53
2022/01/07 12:52:30;;;;;;;2.30;1.00;;;0.40;99.90;;;;;;2220684;64;20193;-36
2022/01/07 12:54:59;;;;;;;2.53;1.00;;;0.30;99.90;;;;;;2220604;64;20103;-36